sensor_id;sensor_type;location;lat;lon;timestamp;P1;durP1;ratioP1;P2;durP2;ratioP2
56567;SDS011;42456;49.956;20.004;2023-08-08T00:01:13;1.10;;;1.10;;
56567;SDS011;42456;49.956;20.004;2023-08-08T00:03:40;1.30;;;1.20;;
56567;SDS011;42456;49.956;20.004;2023-08-08T00:06:07;0.90;;;0.90;;
56567;SDS011;42456;49.956;20.004;2023-08-08T00:08:35;1.60;;;1.10;;
56567;SDS011;42456;49.956;20.004;2023-08-08T00:11:02;2.00;;;1.00;;
56567;SDS011;42456;49.956;20.004;2023-08-08T00:13:29;1.00;;;1.00;;
56567;SDS011;42456;49.956;20.004;2023-08-08T00:15:56;1.20;;;1.10;;
56567;SDS011;42456;49.956;20.004;2023-08-08T00:18:23;2.80;;;1.00;;
56567;SDS011;42456;49.956;20.004;2023-08-08T00:20:50;1.00;;;1.00;;
56567;SDS011;42456;49.956;20.004;2023-08-08T00:23:17;3.00;;;1.10;;
56567;SDS011;42456;49.956;20.004;2023-08-08T00:25:43;0.80;;;0.80;;
56567;SDS011;42456;49.956;20.004;2023-08-08T00:28:16;2.20;;;1.00;;
56567;SDS011;42456;49.956;20.004;2023-08-08T00:30:44;2.00;;;1.30;;
56567;SDS011;42456;49.956;20.004;2023-08-08T00:33:11;1.30;;;1.20;;
56567;SDS011;42456;49.956;20.004;2023-08-08T00:35:38;2.60;;;1.10;;
56567;SDS011;42456;49.956;20.004;2023-08-08T00:38:05;1.70;;;1.40;;
56567;SDS011;42456;49.956;20.004;2023-08-08T00:40:31;1.40;;;1.00;;
56567;SDS011;42456;49.956;20.004;2023-08-08T00:42:59;2.00;;;1.00;;
56567;SDS011;42456;49.956;20.004;2023-08-08T00:45:25;2.20;;;1.30;;
56567;SDS011;42456;49.956;20.004;2023-08-08T00:47:53;2.60;;;1.10;;
56567;SDS011;42456;49.956;20.004;2023-08-08T00:50:20;1.50;;;1.40;;
56567;SDS011;42456;49.956;20.004;2023-08-08T00:52:47;2.00;;;1.10;;
56567;SDS011;42456;49.956;20.004;2023-08-08T00:55:15;1.30;;;1.20;;
56567;SDS011;42456;49.956;20.004;2023-08-08T00:57:43;1.30;;;1.20;;
56567;SDS011;42456;49.956;20.004;2023-08-08T01:00:10;1.50;;;1.40;;
56567;SDS011;42456;49.956;20.004;2023-08-08T01:02:38;2.20;;;1.50;;
56567;SDS011;42456;49.956;20.004;2023-08-08T01:05:05;3.20;;;1.20;;
56567;SDS011;42456;49.956;20.004;2023-08-08T01:07:47;2.30;;;1.30;;
56567;SDS011;42456;49.956;20.004;2023-08-08T01:10:21;3.20;;;0.90;;
56567;SDS011;42456;49.956;20.004;2023-08-08T01:12:59;1.80;;;1.50;;
56567;SDS011;42456;49.956;20.004;2023-08-08T01:15:29;5.30;;;1.50;;
56567;SDS011;42456;49.956;20.004;2023-08-08T01:18:05;2.40;;;1.10;;
56567;SDS011;42456;49.956;20.004;2023-08-08T01:20:33;2.90;;;1.60;;
56567;SDS011;42456;49.956;20.004;2023-08-08T01:25:40;1.30;;;1.10;;
56567;SDS011;42456;49.956;20.004;2023-08-08T01:28:07;1.30;;;1.20;;
56567;SDS011;42456;49.956;20.004;2023-08-08T01:30:35;1.90;;;1.20;;
56567;SDS011;42456;49.956;20.004;2023-08-08T01:33:02;1.50;;;1.30;;
56567;SDS011;42456;49.956;20.004;2023-08-08T01:35:30;1.60;;;1.30;;
56567;SDS011;42456;49.956;20.004;2023-08-08T01:38:04;1.90;;;1.40;;
56567;SDS011;42456;49.956;20.004;2023-08-08T01:40:40;1.80;;;1.60;;
56567;SDS011;42456;49.956;20.004;2023-08-08T01:43:09;1.60;;;1.50;;
56567;SDS011;42456;49.956;20.004;2023-08-08T01:45:37;4.60;;;1.50;;
56567;SDS011;42456;49.956;20.004;2023-08-08T01:48:07;1.50;;;1.40;;
56567;SDS011;42456;49.956;20.004;2023-08-08T01:50:36;2.80;;;1.80;;
56567;SDS011;42456;49.956;20.004;2023-08-08T01:53:03;4.20;;;1.70;;
56567;SDS011;42456;49.956;20.004;2023-08-08T01:55:30;3.80;;;1.70;;
56567;SDS011;42456;49.956;20.004;2023-08-08T01:57:57;2.60;;;1.60;;
56567;SDS011;42456;49.956;20.004;2023-08-08T02:00:25;3.00;;;1.30;;
56567;SDS011;42456;49.956;20.004;2023-08-08T02:02:52;2.80;;;1.40;;
56567;SDS011;42456;49.956;20.004;2023-08-08T02:05:19;2.90;;;1.30;;
56567;SDS011;42456;49.956;20.004;2023-08-08T02:07:46;2.20;;;1.40;;
56567;SDS011;42456;49.956;20.004;2023-08-08T02:10:13;2.00;;;1.60;;
56567;SDS011;42456;49.956;20.004;2023-08-08T02:12:39;3.50;;;1.40;;
56567;SDS011;42456;49.956;20.004;2023-08-08T02:15:06;2.10;;;1.30;;
56567;SDS011;42456;49.956;20.004;2023-08-08T02:17:34;3.50;;;1.60;;
56567;SDS011;42456;49.956;20.004;2023-08-08T02:20:00;1.60;;;1.50;;
56567;SDS011;42456;49.956;20.004;2023-08-08T02:22:27;2.00;;;1.60;;
56567;SDS011;42456;49.956;20.004;2023-08-08T02:24:54;2.20;;;1.50;;
56567;SDS011;42456;49.956;20.004;2023-08-08T02:27:21;3.30;;;1.40;;
56567;SDS011;42456;49.956;20.004;2023-08-08T02:29:48;8.60;;;3.10;;
56567;SDS011;42456;49.956;20.004;2023-08-08T02:32:15;1.40;;;1.30;;
56567;SDS011;42456;49.956;20.004;2023-08-08T02:34:41;7.60;;;1.80;;
56567;SDS011;42456;49.956;20.004;2023-08-08T02:37:08;4.40;;;1.60;;
56567;SDS011;42456;49.956;20.004;2023-08-08T02:39:35;2.00;;;1.80;;
56567;SDS011;42456;49.956;20.004;2023-08-08T02:42:02;2.70;;;1.70;;
56567;SDS011;42456;49.956;20.004;2023-08-08T02:44:29;2.10;;;1.60;;
56567;SDS011;42456;49.956;20.004;2023-08-08T02:46:56;3.40;;;1.50;;
56567;SDS011;42456;49.956;20.004;2023-08-08T02:49:23;2.30;;;1.40;;
56567;SDS011;42456;49.956;20.004;2023-08-08T02:51:49;3.40;;;1.40;;
56567;SDS011;42456;49.956;20.004;2023-08-08T02:54:16;1.30;;;1.20;;
56567;SDS011;42456;49.956;20.004;2023-08-08T02:56:43;1.70;;;1.60;;
56567;SDS011;42456;49.956;20.004;2023-08-08T02:59:10;1.90;;;1.30;;
56567;SDS011;42456;49.956;20.004;2023-08-08T03:01:37;4.30;;;1.50;;
56567;SDS011;42456;49.956;20.004;2023-08-08T03:04:06;2.20;;;1.60;;
56567;SDS011;42456;49.956;20.004;2023-08-08T03:06:33;2.00;;;1.30;;
56567;SDS011;42456;49.956;20.004;2023-08-08T03:08:59;3.30;;;1.50;;
56567;SDS011;42456;49.956;20.004;2023-08-08T03:11:26;2.40;;;1.50;;
56567;SDS011;42456;49.956;20.004;2023-08-08T03:13:53;2.10;;;1.40;;
56567;SDS011;42456;49.956;20.004;2023-08-08T03:16:20;2.10;;;1.30;;
56567;SDS011;42456;49.956;20.004;2023-08-08T03:18:47;4.70;;;1.30;;
56567;SDS011;42456;49.956;20.004;2023-08-08T03:21:13;2.00;;;1.20;;
56567;SDS011;42456;49.956;20.004;2023-08-08T03:23:40;2.90;;;1.30;;
56567;SDS011;42456;49.956;20.004;2023-08-08T03:26:07;1.80;;;1.40;;
56567;SDS011;42456;49.956;20.004;2023-08-08T03:28:34;1.60;;;1.50;;
56567;SDS011;42456;49.956;20.004;2023-08-08T03:31:00;2.90;;;1.40;;
56567;SDS011;42456;49.956;20.004;2023-08-08T03:33:29;3.30;;;1.60;;
56567;SDS011;42456;49.956;20.004;2023-08-08T03:35:56;2.80;;;1.40;;
56567;SDS011;42456;49.956;20.004;2023-08-08T03:38:23;1.90;;;1.50;;
56567;SDS011;42456;49.956;20.004;2023-08-08T03:40:50;3.10;;;1.60;;
56567;SDS011;42456;49.956;20.004;2023-08-08T03:43:17;7.90;;;1.50;;
56567;SDS011;42456;49.956;20.004;2023-08-08T03:45:44;2.00;;;1.50;;
56567;SDS011;42456;49.956;20.004;2023-08-08T03:48:25;4.30;;;1.40;;
56567;SDS011;42456;49.956;20.004;2023-08-08T03:50:52;1.70;;;1.60;;
56567;SDS011;42456;49.956;20.004;2023-08-08T03:53:19;2.40;;;1.50;;
56567;SDS011;42456;49.956;20.004;2023-08-08T03:55:46;1.50;;;1.30;;
56567;SDS011;42456;49.956;20.004;2023-08-08T03:58:12;4.40;;;1.50;;
56567;SDS011;42456;49.956;20.004;2023-08-08T04:00:39;1.80;;;1.20;;
56567;SDS011;42456;49.956;20.004;2023-08-08T04:03:13;5.90;;;2.10;;
56567;SDS011;42456;49.956;20.004;2023-08-08T04:05:44;4.10;;;1.60;;
56567;SDS011;42456;49.956;20.004;2023-08-08T04:08:15;5.10;;;1.60;;
56567;SDS011;42456;49.956;20.004;2023-08-08T04:10:42;2.90;;;1.60;;
56567;SDS011;42456;49.956;20.004;2023-08-08T04:13:13;2.80;;;1.60;;
56567;SDS011;42456;49.956;20.004;2023-08-08T04:15:40;3.10;;;1.60;;
56567;SDS011;42456;49.956;20.004;2023-08-08T04:18:07;3.60;;;1.70;;
56567;SDS011;42456;49.956;20.004;2023-08-08T04:20:34;6.00;;;1.50;;
56567;SDS011;42456;49.956;20.004;2023-08-08T04:23:01;3.50;;;1.80;;
56567;SDS011;42456;49.956;20.004;2023-08-08T04:25:28;5.20;;;1.70;;
56567;SDS011;42456;49.956;20.004;2023-08-08T04:27:55;3.60;;;2.30;;
56567;SDS011;42456;49.956;20.004;2023-08-08T04:30:22;1.30;;;1.20;;
56567;SDS011;42456;49.956;20.004;2023-08-08T04:32:50;6.00;;;1.90;;
56567;SDS011;42456;49.956;20.004;2023-08-08T04:35:17;2.10;;;1.40;;
56567;SDS011;42456;49.956;20.004;2023-08-08T04:37:44;2.40;;;1.50;;
56567;SDS011;42456;49.956;20.004;2023-08-08T04:40:11;1.90;;;1.20;;
56567;SDS011;42456;49.956;20.004;2023-08-08T04:42:38;1.60;;;1.10;;
56567;SDS011;42456;49.956;20.004;2023-08-08T04:45:05;4.00;;;1.50;;
56567;SDS011;42456;49.956;20.004;2023-08-08T04:47:33;4.50;;;1.70;;
56567;SDS011;42456;49.956;20.004;2023-08-08T04:50:00;2.10;;;1.50;;
56567;SDS011;42456;49.956;20.004;2023-08-08T04:52:27;3.70;;;1.70;;
56567;SDS011;42456;49.956;20.004;2023-08-08T04:54:54;3.10;;;1.60;;
56567;SDS011;42456;49.956;20.004;2023-08-08T04:57:21;2.30;;;1.40;;
56567;SDS011;42456;49.956;20.004;2023-08-08T04:59:48;2.10;;;1.60;;
56567;SDS011;42456;49.956;20.004;2023-08-08T05:02:15;2.60;;;1.30;;
56567;SDS011;42456;49.956;20.004;2023-08-08T05:04:42;4.40;;;1.60;;
56567;SDS011;42456;49.956;20.004;2023-08-08T05:07:09;3.80;;;1.60;;
56567;SDS011;42456;49.956;20.004;2023-08-08T05:09:36;2.30;;;1.50;;
56567;SDS011;42456;49.956;20.004;2023-08-08T05:12:03;4.60;;;1.50;;
56567;SDS011;42456;49.956;20.004;2023-08-08T05:14:31;1.60;;;1.50;;
56567;SDS011;42456;49.956;20.004;2023-08-08T05:16:58;2.80;;;1.50;;
56567;SDS011;42456;49.956;20.004;2023-08-08T05:19:25;2.20;;;1.30;;
56567;SDS011;42456;49.956;20.004;2023-08-08T05:21:52;2.90;;;1.50;;
56567;SDS011;42456;49.956;20.004;2023-08-08T05:24:19;4.20;;;1.50;;
56567;SDS011;42456;49.956;20.004;2023-08-08T05:26:46;4.00;;;1.40;;
56567;SDS011;42456;49.956;20.004;2023-08-08T05:29:13;4.20;;;1.60;;
56567;SDS011;42456;49.956;20.004;2023-08-08T05:31:43;5.30;;;1.80;;
56567;SDS011;42456;49.956;20.004;2023-08-08T05:34:10;3.70;;;1.60;;
56567;SDS011;42456;49.956;20.004;2023-08-08T05:36:37;5.40;;;1.60;;
56567;SDS011;42456;49.956;20.004;2023-08-08T05:39:04;2.10;;;1.40;;
56567;SDS011;42456;49.956;20.004;2023-08-08T05:41:30;4.30;;;1.80;;
56567;SDS011;42456;49.956;20.004;2023-08-08T05:43:57;3.10;;;1.60;;
56567;SDS011;42456;49.956;20.004;2023-08-08T05:46:24;3.50;;;1.70;;
56567;SDS011;42456;49.956;20.004;2023-08-08T05:48:51;2.20;;;1.60;;
56567;SDS011;42456;49.956;20.004;2023-08-08T05:51:18;3.20;;;1.40;;
56567;SDS011;42456;49.956;20.004;2023-08-08T05:53:45;2.00;;;1.80;;
56567;SDS011;42456;49.956;20.004;2023-08-08T05:56:11;2.90;;;1.60;;
56567;SDS011;42456;49.956;20.004;2023-08-08T05:58:38;2.50;;;1.50;;
56567;SDS011;42456;49.956;20.004;2023-08-08T06:01:05;2.40;;;1.60;;
56567;SDS011;42456;49.956;20.004;2023-08-08T06:03:35;1.90;;;1.70;;
56567;SDS011;42456;49.956;20.004;2023-08-08T06:06:04;4.10;;;1.60;;
56567;SDS011;42456;49.956;20.004;2023-08-08T06:08:33;3.80;;;1.50;;
56567;SDS011;42456;49.956;20.004;2023-08-08T06:11:00;1.70;;;1.40;;
56567;SDS011;42456;49.956;20.004;2023-08-08T06:13:27;3.20;;;1.50;;
56567;SDS011;42456;49.956;20.004;2023-08-08T06:15:54;2.40;;;1.60;;
56567;SDS011;42456;49.956;20.004;2023-08-08T06:18:21;4.10;;;1.70;;
56567;SDS011;42456;49.956;20.004;2023-08-08T06:20:48;5.00;;;1.60;;
56567;SDS011;42456;49.956;20.004;2023-08-08T06:23:15;2.40;;;1.80;;
56567;SDS011;42456;49.956;20.004;2023-08-08T06:25:42;2.40;;;1.60;;
56567;SDS011;42456;49.956;20.004;2023-08-08T06:28:09;3.20;;;1.30;;
56567;SDS011;42456;49.956;20.004;2023-08-08T06:30:36;2.20;;;1.60;;
56567;SDS011;42456;49.956;20.004;2023-08-08T06:33:03;2.90;;;1.70;;
56567;SDS011;42456;49.956;20.004;2023-08-08T06:35:30;3.60;;;1.70;;
56567;SDS011;42456;49.956;20.004;2023-08-08T06:37:57;3.20;;;1.70;;
56567;SDS011;42456;49.956;20.004;2023-08-08T06:40:24;2.60;;;1.90;;
56567;SDS011;42456;49.956;20.004;2023-08-08T06:42:51;5.10;;;1.90;;
56567;SDS011;42456;49.956;20.004;2023-08-08T06:45:17;3.30;;;1.50;;
56567;SDS011;42456;49.956;20.004;2023-08-08T06:47:45;2.60;;;1.70;;
56567;SDS011;42456;49.956;20.004;2023-08-08T06:50:12;3.10;;;1.80;;
56567;SDS011;42456;49.956;20.004;2023-08-08T06:52:39;4.60;;;1.80;;
56567;SDS011;42456;49.956;20.004;2023-08-08T06:55:07;1.60;;;1.50;;
56567;SDS011;42456;49.956;20.004;2023-08-08T06:57:34;1.80;;;1.60;;
56567;SDS011;42456;49.956;20.004;2023-08-08T07:00:02;1.70;;;1.50;;
56567;SDS011;42456;49.956;20.004;2023-08-08T07:02:31;5.50;;;1.80;;
56567;SDS011;42456;49.956;20.004;2023-08-08T07:04:59;2.00;;;1.60;;
56567;SDS011;42456;49.956;20.004;2023-08-08T07:07:25;5.60;;;1.60;;
56567;SDS011;42456;49.956;20.004;2023-08-08T07:09:52;3.10;;;1.60;;
56567;SDS011;42456;49.956;20.004;2023-08-08T07:12:19;3.00;;;1.30;;
56567;SDS011;42456;49.956;20.004;2023-08-08T07:14:46;2.90;;;1.50;;
56567;SDS011;42456;49.956;20.004;2023-08-08T07:17:13;2.00;;;1.60;;
56567;SDS011;42456;49.956;20.004;2023-08-08T07:19:41;6.10;;;1.80;;
56567;SDS011;42456;49.956;20.004;2023-08-08T07:22:08;4.00;;;1.80;;
56567;SDS011;42456;49.956;20.004;2023-08-08T07:24:35;3.00;;;1.60;;
56567;SDS011;42456;49.956;20.004;2023-08-08T07:27:02;4.70;;;2.10;;
56567;SDS011;42456;49.956;20.004;2023-08-08T07:29:29;3.50;;;2.00;;
56567;SDS011;42456;49.956;20.004;2023-08-08T07:31:57;2.10;;;1.50;;
56567;SDS011;42456;49.956;20.004;2023-08-08T07:34:25;2.30;;;1.60;;
56567;SDS011;42456;49.956;20.004;2023-08-08T07:36:52;2.80;;;1.80;;
56567;SDS011;42456;49.956;20.004;2023-08-08T07:39:19;4.40;;;1.80;;
56567;SDS011;42456;49.956;20.004;2023-08-08T07:41:46;3.60;;;1.80;;
56567;SDS011;42456;49.956;20.004;2023-08-08T07:44:13;3.80;;;1.90;;
56567;SDS011;42456;49.956;20.004;2023-08-08T07:46:41;3.10;;;2.00;;
56567;SDS011;42456;49.956;20.004;2023-08-08T07:49:08;2.80;;;1.80;;
56567;SDS011;42456;49.956;20.004;2023-08-08T07:51:35;3.40;;;1.90;;
56567;SDS011;42456;49.956;20.004;2023-08-08T07:54:03;5.80;;;1.90;;
56567;SDS011;42456;49.956;20.004;2023-08-08T07:56:32;1.60;;;1.50;;
56567;SDS011;42456;49.956;20.004;2023-08-08T07:58:58;2.20;;;1.30;;
56567;SDS011;42456;49.956;20.004;2023-08-08T08:01:26;1.10;;;1.10;;
56567;SDS011;42456;49.956;20.004;2023-08-08T08:03:54;3.70;;;1.50;;
56567;SDS011;42456;49.956;20.004;2023-08-08T08:06:21;1.90;;;1.70;;
56567;SDS011;42456;49.956;20.004;2023-08-08T08:08:48;1.80;;;1.50;;
56567;SDS011;42456;49.956;20.004;2023-08-08T08:11:15;2.80;;;1.60;;
56567;SDS011;42456;49.956;20.004;2023-08-08T08:13:43;2.20;;;1.80;;
56567;SDS011;42456;49.956;20.004;2023-08-08T08:16:10;2.60;;;1.70;;
56567;SDS011;42456;49.956;20.004;2023-08-08T08:18:37;2.30;;;1.60;;
56567;SDS011;42456;49.956;20.004;2023-08-08T08:21:04;3.40;;;1.80;;
56567;SDS011;42456;49.956;20.004;2023-08-08T08:23:31;2.60;;;1.70;;
56567;SDS011;42456;49.956;20.004;2023-08-08T08:25:59;3.20;;;1.60;;
56567;SDS011;42456;49.956;20.004;2023-08-08T08:28:26;2.40;;;1.50;;
56567;SDS011;42456;49.956;20.004;2023-08-08T08:30:53;2.50;;;1.70;;
56567;SDS011;42456;49.956;20.004;2023-08-08T08:33:20;2.80;;;1.90;;
56567;SDS011;42456;49.956;20.004;2023-08-08T08:35:47;2.60;;;1.50;;
56567;SDS011;42456;49.956;20.004;2023-08-08T08:38:14;2.80;;;1.60;;
56567;SDS011;42456;49.956;20.004;2023-08-08T08:40:41;4.70;;;2.00;;
56567;SDS011;42456;49.956;20.004;2023-08-08T08:43:12;2.80;;;1.60;;
56567;SDS011;42456;49.956;20.004;2023-08-08T08:45:40;2.80;;;1.70;;
56567;SDS011;42456;49.956;20.004;2023-08-08T08:48:10;3.60;;;1.60;;
56567;SDS011;42456;49.956;20.004;2023-08-08T08:50:38;2.80;;;1.70;;
56567;SDS011;42456;49.956;20.004;2023-08-08T08:53:06;3.30;;;1.50;;
56567;SDS011;42456;49.956;20.004;2023-08-08T08:55:33;2.30;;;1.60;;
56567;SDS011;42456;49.956;20.004;2023-08-08T08:58:01;4.00;;;2.10;;
56567;SDS011;42456;49.956;20.004;2023-08-08T09:00:28;2.40;;;1.50;;
56567;SDS011;42456;49.956;20.004;2023-08-08T09:02:57;1.60;;;1.30;;
56567;SDS011;42456;49.956;20.004;2023-08-08T09:05:25;3.80;;;1.50;;
56567;SDS011;42456;49.956;20.004;2023-08-08T09:07:53;1.60;;;1.50;;
56567;SDS011;42456;49.956;20.004;2023-08-08T09:10:20;2.80;;;1.80;;
56567;SDS011;42456;49.956;20.004;2023-08-08T09:12:48;3.50;;;1.70;;
56567;SDS011;42456;49.956;20.004;2023-08-08T09:15:15;4.20;;;1.70;;
56567;SDS011;42456;49.956;20.004;2023-08-08T09:17:43;4.30;;;1.70;;
56567;SDS011;42456;49.956;20.004;2023-08-08T09:20:15;3.60;;;1.80;;
56567;SDS011;42456;49.956;20.004;2023-08-08T09:22:43;3.50;;;1.50;;
56567;SDS011;42456;49.956;20.004;2023-08-08T09:25:11;2.40;;;1.80;;
56567;SDS011;42456;49.956;20.004;2023-08-08T09:27:39;2.30;;;1.50;;
56567;SDS011;42456;49.956;20.004;2023-08-08T09:30:09;2.00;;;1.50;;
56567;SDS011;42456;49.956;20.004;2023-08-08T09:32:36;3.60;;;1.20;;
56567;SDS011;42456;49.956;20.004;2023-08-08T09:35:04;2.50;;;1.10;;
56567;SDS011;42456;49.956;20.004;2023-08-08T09:37:36;6.00;;;1.90;;
56567;SDS011;42456;49.956;20.004;2023-08-08T09:40:05;3.70;;;1.40;;
56567;SDS011;42456;49.956;20.004;2023-08-08T09:42:35;3.50;;;1.30;;
56567;SDS011;42456;49.956;20.004;2023-08-08T09:45:02;1.90;;;1.30;;
56567;SDS011;42456;49.956;20.004;2023-08-08T09:47:30;4.10;;;1.50;;
56567;SDS011;42456;49.956;20.004;2023-08-08T09:50:01;1.70;;;1.30;;
56567;SDS011;42456;49.956;20.004;2023-08-08T09:52:33;2.20;;;1.50;;
56567;SDS011;42456;49.956;20.004;2023-08-08T09:55:00;2.10;;;1.60;;
56567;SDS011;42456;49.956;20.004;2023-08-08T09:57:28;2.20;;;1.60;;
56567;SDS011;42456;49.956;20.004;2023-08-08T09:59:56;1.80;;;1.40;;
56567;SDS011;42456;49.956;20.004;2023-08-08T10:02:24;1.70;;;1.40;;
56567;SDS011;42456;49.956;20.004;2023-08-08T10:04:52;3.00;;;1.60;;
56567;SDS011;42456;49.956;20.004;2023-08-08T10:07:22;3.10;;;1.50;;
56567;SDS011;42456;49.956;20.004;2023-08-08T10:09:49;3.20;;;1.60;;
56567;SDS011;42456;49.956;20.004;2023-08-08T10:12:16;1.70;;;1.30;;
56567;SDS011;42456;49.956;20.004;2023-08-08T10:14:44;2.50;;;1.70;;
56567;SDS011;42456;49.956;20.004;2023-08-08T10:17:15;2.90;;;1.40;;
56567;SDS011;42456;49.956;20.004;2023-08-08T10:19:53;1.70;;;1.50;;
56567;SDS011;42456;49.956;20.004;2023-08-08T10:22:22;1.90;;;1.20;;
56567;SDS011;42456;49.956;20.004;2023-08-08T10:24:51;2.10;;;1.70;;
56567;SDS011;42456;49.956;20.004;2023-08-08T10:30:06;2.10;;;1.40;;
56567;SDS011;42456;49.956;20.004;2023-08-08T10:32:39;2.50;;;2.00;;
56567;SDS011;42456;49.956;20.004;2023-08-08T10:35:11;2.30;;;1.40;;
56567;SDS011;42456;49.956;20.004;2023-08-08T10:37:39;1.80;;;1.50;;
56567;SDS011;42456;49.956;20.004;2023-08-08T10:40:07;3.40;;;1.50;;
56567;SDS011;42456;49.956;20.004;2023-08-08T10:42:42;2.40;;;1.50;;
56567;SDS011;42456;49.956;20.004;2023-08-08T10:45:11;3.20;;;1.50;;
56567;SDS011;42456;49.956;20.004;2023-08-08T10:47:40;1.50;;;1.40;;
56567;SDS011;42456;49.956;20.004;2023-08-08T10:50:09;2.40;;;1.40;;
56567;SDS011;42456;49.956;20.004;2023-08-08T10:57:54;3.60;;;1.90;;
56567;SDS011;42456;49.956;20.004;2023-08-08T11:00:23;4.00;;;1.90;;
56567;SDS011;42456;49.956;20.004;2023-08-08T11:02:54;2.80;;;1.90;;
56567;SDS011;42456;49.956;20.004;2023-08-08T11:05:22;4.00;;;2.20;;
56567;SDS011;42456;49.956;20.004;2023-08-08T11:07:50;2.70;;;1.90;;
56567;SDS011;42456;49.956;20.004;2023-08-08T11:10:17;4.30;;;1.90;;
56567;SDS011;42456;49.956;20.004;2023-08-08T11:12:55;2.10;;;1.90;;
56567;SDS011;42456;49.956;20.004;2023-08-08T11:15:27;5.00;;;1.90;;
56567;SDS011;42456;49.956;20.004;2023-08-08T11:17:56;2.90;;;1.80;;
56567;SDS011;42456;49.956;20.004;2023-08-08T11:20:24;2.30;;;1.70;;
56567;SDS011;42456;49.956;20.004;2023-08-08T11:22:52;4.10;;;1.90;;
56567;SDS011;42456;49.956;20.004;2023-08-08T11:25:21;1.90;;;1.60;;
56567;SDS011;42456;49.956;20.004;2023-08-08T11:27:49;3.30;;;1.60;;
56567;SDS011;42456;49.956;20.004;2023-08-08T11:30:18;5.00;;;2.70;;
56567;SDS011;42456;49.956;20.004;2023-08-08T11:32:46;6.10;;;1.90;;
56567;SDS011;42456;49.956;20.004;2023-08-08T11:35:34;2.80;;;1.80;;
56567;SDS011;42456;49.956;20.004;2023-08-08T11:38:02;3.80;;;1.60;;
56567;SDS011;42456;49.956;20.004;2023-08-08T11:40:31;2.70;;;1.80;;
56567;SDS011;42456;49.956;20.004;2023-08-08T11:42:58;5.30;;;1.60;;
56567;SDS011;42456;49.956;20.004;2023-08-08T11:45:26;3.40;;;1.80;;
56567;SDS011;42456;49.956;20.004;2023-08-08T11:47:54;4.00;;;2.20;;
56567;SDS011;42456;49.956;20.004;2023-08-08T11:50:23;3.50;;;1.80;;
56567;SDS011;42456;49.956;20.004;2023-08-08T11:52:52;3.10;;;1.90;;
56567;SDS011;42456;49.956;20.004;2023-08-08T11:55:20;5.20;;;2.20;;
56567;SDS011;42456;49.956;20.004;2023-08-08T11:57:54;2.40;;;1.60;;
56567;SDS011;42456;49.956;20.004;2023-08-08T12:00:29;2.10;;;1.70;;
56567;SDS011;42456;49.956;20.004;2023-08-08T12:03:00;3.10;;;1.70;;
56567;SDS011;42456;49.956;20.004;2023-08-08T12:05:31;2.30;;;1.50;;
56567;SDS011;42456;49.956;20.004;2023-08-08T12:08:05;3.20;;;1.90;;
56567;SDS011;42456;49.956;20.004;2023-08-08T12:10:33;2.80;;;1.90;;
56567;SDS011;42456;49.956;20.004;2023-08-08T12:13:00;4.30;;;2.40;;
56567;SDS011;42456;49.956;20.004;2023-08-08T12:15:35;17.40;;;8.70;;
56567;SDS011;42456;49.956;20.004;2023-08-08T12:18:02;18.00;;;9.20;;
56567;SDS011;42456;49.956;20.004;2023-08-08T12:20:30;5.50;;;3.00;;
56567;SDS011;42456;49.956;20.004;2023-08-08T12:22:58;4.10;;;2.60;;
56567;SDS011;42456;49.956;20.004;2023-08-08T12:25:26;6.70;;;3.30;;
56567;SDS011;42456;49.956;20.004;2023-08-08T12:27:54;3.30;;;2.10;;
56567;SDS011;42456;49.956;20.004;2023-08-08T12:30:21;2.60;;;1.60;;
56567;SDS011;42456;49.956;20.004;2023-08-08T12:32:50;3.70;;;1.90;;
56567;SDS011;42456;49.956;20.004;2023-08-08T12:35:17;8.00;;;2.40;;
56567;SDS011;42456;49.956;20.004;2023-08-08T12:37:44;5.00;;;2.10;;
56567;SDS011;42456;49.956;20.004;2023-08-08T12:40:11;2.70;;;1.90;;
56567;SDS011;42456;49.956;20.004;2023-08-08T12:42:39;3.40;;;1.90;;
56567;SDS011;42456;49.956;20.004;2023-08-08T12:45:06;5.10;;;1.90;;
56567;SDS011;42456;49.956;20.004;2023-08-08T12:47:34;1.90;;;1.70;;
56567;SDS011;42456;49.956;20.004;2023-08-08T12:50:04;3.00;;;1.80;;
56567;SDS011;42456;49.956;20.004;2023-08-08T12:52:32;4.60;;;2.20;;
56567;SDS011;42456;49.956;20.004;2023-08-08T12:54:59;3.30;;;2.00;;
56567;SDS011;42456;49.956;20.004;2023-08-08T12:57:26;4.90;;;2.10;;
56567;SDS011;42456;49.956;20.004;2023-08-08T12:59:53;3.90;;;2.00;;
56567;SDS011;42456;49.956;20.004;2023-08-08T13:02:21;7.10;;;2.20;;
56567;SDS011;42456;49.956;20.004;2023-08-08T13:04:48;3.70;;;2.00;;
56567;SDS011;42456;49.956;20.004;2023-08-08T13:07:15;3.10;;;2.30;;
56567;SDS011;42456;49.956;20.004;2023-08-08T13:09:43;1.70;;;1.60;;
56567;SDS011;42456;49.956;20.004;2023-08-08T13:12:10;2.50;;;1.80;;
56567;SDS011;42456;49.956;20.004;2023-08-08T13:14:37;2.10;;;1.80;;
56567;SDS011;42456;49.956;20.004;2023-08-08T13:17:04;3.70;;;1.80;;
56567;SDS011;42456;49.956;20.004;2023-08-08T13:19:31;4.30;;;1.80;;
56567;SDS011;42456;49.956;20.004;2023-08-08T13:21:58;2.10;;;1.90;;
56567;SDS011;42456;49.956;20.004;2023-08-08T13:24:26;2.60;;;1.90;;
56567;SDS011;42456;49.956;20.004;2023-08-08T13:26:53;3.30;;;2.00;;
56567;SDS011;42456;49.956;20.004;2023-08-08T13:29:20;2.40;;;1.70;;
56567;SDS011;42456;49.956;20.004;2023-08-08T13:31:47;3.60;;;2.00;;
56567;SDS011;42456;49.956;20.004;2023-08-08T13:34:14;2.70;;;1.80;;
56567;SDS011;42456;49.956;20.004;2023-08-08T13:36:41;2.20;;;1.70;;
56567;SDS011;42456;49.956;20.004;2023-08-08T13:39:09;4.50;;;2.10;;
56567;SDS011;42456;49.956;20.004;2023-08-08T13:41:37;4.80;;;2.30;;
56567;SDS011;42456;49.956;20.004;2023-08-08T13:44:20;2.00;;;1.80;;
56567;SDS011;42456;49.956;20.004;2023-08-08T13:46:47;3.10;;;1.70;;
56567;SDS011;42456;49.956;20.004;2023-08-08T13:49:14;4.20;;;1.70;;
56567;SDS011;42456;49.956;20.004;2023-08-08T13:51:41;2.70;;;1.80;;
56567;SDS011;42456;49.956;20.004;2023-08-08T13:54:11;3.30;;;1.70;;
56567;SDS011;42456;49.956;20.004;2023-08-08T13:56:38;2.30;;;1.90;;
56567;SDS011;42456;49.956;20.004;2023-08-08T13:59:05;2.20;;;1.70;;
56567;SDS011;42456;49.956;20.004;2023-08-08T14:01:32;3.10;;;2.10;;
56567;SDS011;42456;49.956;20.004;2023-08-08T14:03:59;2.00;;;1.80;;
56567;SDS011;42456;49.956;20.004;2023-08-08T14:06:27;2.90;;;1.80;;
56567;SDS011;42456;49.956;20.004;2023-08-08T14:08:55;3.50;;;1.60;;
56567;SDS011;42456;49.956;20.004;2023-08-08T14:11:22;3.00;;;2.00;;
56567;SDS011;42456;49.956;20.004;2023-08-08T14:13:50;2.50;;;1.80;;
56567;SDS011;42456;49.956;20.004;2023-08-08T14:16:17;2.10;;;1.80;;
56567;SDS011;42456;49.956;20.004;2023-08-08T14:18:44;2.10;;;1.80;;
56567;SDS011;42456;49.956;20.004;2023-08-08T14:21:11;7.40;;;1.70;;
56567;SDS011;42456;49.956;20.004;2023-08-08T14:23:38;3.40;;;1.90;;
56567;SDS011;42456;49.956;20.004;2023-08-08T14:26:05;1.70;;;1.50;;
56567;SDS011;42456;49.956;20.004;2023-08-08T14:28:32;3.10;;;1.70;;
56567;SDS011;42456;49.956;20.004;2023-08-08T14:30:59;1.90;;;1.70;;
56567;SDS011;42456;49.956;20.004;2023-08-08T14:33:28;4.70;;;1.80;;
56567;SDS011;42456;49.956;20.004;2023-08-08T14:35:55;2.00;;;1.60;;
56567;SDS011;42456;49.956;20.004;2023-08-08T14:38:23;1.40;;;1.30;;
56567;SDS011;42456;49.956;20.004;2023-08-08T14:43:21;2.00;;;1.70;;
56567;SDS011;42456;49.956;20.004;2023-08-08T14:45:49;4.30;;;1.90;;
56567;SDS011;42456;49.956;20.004;2023-08-08T14:48:17;2.40;;;1.60;;
56567;SDS011;42456;49.956;20.004;2023-08-08T14:50:44;2.50;;;1.60;;